Time;durP1;ratioP1;P1;durP2;ratioP2;P2;SDS_P1;SDS_P2;PMS_P1;PMS_P2;Temp;Humidity;BMP_temperature;BMP_pressure;BME280_temperature;BME280_humidity;BME280_pressure;Samples;Min_cycle;Max_cycle;Signal;HPM_P1;HPM_P2
2024/01/15 00:02:10;;;;;;;21.50;19.97;;;;;;;1.27;100.00;98879.00;5009641;28;20463;-36
2024/01/15 00:04:41;;;;;;;22.43;21.03;;;;;;;1.23;100.00;98866.41;5010210;28;20495;-36
2024/01/15 00:07:10;;;;;;;24.77;23.03;;;;;;;1.19;100.00;98871.22;5010318;28;20441;-35
2024/01/15 00:09:38;;;;;;;23.80;22.47;;;;;;;1.13;100.00;98858.81;5010394;28;20439;-38
2024/01/15 00:12:08;;;;;;;23.90;22.27;;;;;;;1.10;100.00;98860.00;5009719;28;20461;-36
2024/01/15 00:14:36;;;;;;;23.37;22.07;;;;;;;1.10;100.00;98865.25;5010322;28;20520;-38
2024/01/15 00:17:03;;;;;;;24.53;22.73;;;;;;;1.15;100.00;98879.63;5009992;28;20468;-38
2024/01/15 00:19:32;;;;;;;25.97;23.87;;;;;;;1.23;100.00;98864.59;5009504;28;20518;-37
2024/01/15 00:22:00;;;;;;;25.13;22.60;;;;;;;1.32;100.00;98873.19;5008913;28;20527;-35
2024/01/15 00:24:27;;;;;;;26.00;23.80;;;;;;;1.38;100.00;98862.75;5010001;28;20536;-36
2024/01/15 00:26:55;;;;;;;25.70;23.00;;;;;;;1.42;100.00;98856.16;5009526;28;20457;-36
2024/01/15 00:29:25;;;;;;;26.43;24.10;;;;;;;1.43;100.00;98844.66;5009889;28;20810;-34
2024/01/15 00:31:53;;;;;;;26.67;24.27;;;;;;;1.46;100.00;98853.97;5009363;28;20468;-36
2024/01/15 00:34:20;;;;;;;24.90;23.00;;;;;;;1.50;100.00;98848.16;5009881;28;20437;-35
2024/01/15 00:36:48;;;;;;;26.40;23.70;;;;;;;1.53;100.00;98839.91;5009587;28;20512;-38
2024/01/15 00:39:16;;;;;;;29.37;23.37;;;;;;;1.56;100.00;98831.66;5009362;28;20507;-36
2024/01/15 00:41:45;;;;;;;25.77;23.47;;;;;;;1.59;100.00;98840.97;5008989;28;20725;-35
2024/01/15 00:44:12;;;;;;;28.30;23.50;;;;;;;1.61;100.00;98831.91;5010093;28;20879;-36
2024/01/15 00:46:46;;;;;;;25.40;23.13;;;;;;;1.70;100.00;98844.94;5009639;28;20956;-34
2024/01/15 00:49:14;;;;;;;24.43;22.37;;;;;;;1.76;100.00;98828.44;5002468;28;20464;-35
2024/01/15 00:51:42;;;;;;;24.20;22.20;;;;;;;1.82;100.00;98817.19;5009300;28;20457;-36
2024/01/15 00:54:11;;;;;;;25.73;23.77;;;;;;;1.88;100.00;98837.47;5008815;28;20464;-35
2024/01/15 00:56:39;;;;;;;25.10;22.93;;;;;;;1.91;100.00;98829.19;5009573;28;20883;-35
2024/01/15 00:59:10;;;;;;;25.20;23.47;;;;;;;1.91;100.00;98824.72;5009651;28;20564;-34
2024/01/15 01:01:38;;;;;;;27.80;25.43;;;;;;;1.90;100.00;98827.56;5008136;28;20531;-41
2024/01/15 01:04:07;;;;;;;24.40;22.37;;;;;;;1.90;100.00;98825.75;5008530;28;20469;-35
2024/01/15 01:06:35;;;;;;;24.50;22.23;;;;;;;1.89;100.00;98824.13;5008373;28;20829;-38
2024/01/15 01:09:03;;;;;;;24.13;21.90;;;;;;;1.91;100.00;98816.84;5009366;28;20429;-34
2024/01/15 01:11:30;;;;;;;24.20;22.43;;;;;;;1.88;100.00;98824.31;5008084;28;20465;-36
2024/01/15 01:13:58;;;;;;;24.07;22.30;;;;;;;1.87;100.00;98825.31;5008587;28;20433;-40
2024/01/15 01:16:26;;;;;;;26.83;24.27;;;;;;;1.91;100.00;98826.56;5008883;28;20544;-35
2024/01/15 01:18:54;;;;;;;24.63;22.50;;;;;;;1.88;100.00;98822.47;5008866;28;20528;-34
2024/01/15 01:21:23;;;;;;;27.23;24.73;;;;;;;1.87;100.00;98828.75;5008255;28;20468;-35
2024/01/15 01:23:51;;;;;;;26.07;24.00;;;;;;;1.83;100.00;98827.50;5009081;28;20430;-38
2024/01/15 01:26:18;;;;;;;24.43;22.67;;;;;;;1.83;100.00;98818.78;5008348;28;20456;-35
2024/01/15 01:28:46;;;;;;;24.20;22.33;;;;;;;1.82;100.00;98804.03;5008714;28;20511;-35
2024/01/15 01:31:14;;;;;;;23.90;22.20;;;;;;;1.84;100.00;98810.72;5007701;28;21023;-35
2024/01/15 01:33:42;;;;;;;27.23;24.57;;;;;;;1.87;100.00;98818.25;5008516;28;20437;-34
2024/01/15 01:36:10;;;;;;;25.93;23.53;;;;;;;1.84;100.00;98816.00;5008988;28;20527;-35
2024/01/15 01:38:41;;;;;;;27.10;24.23;;;;;;;1.84;100.00;98821.25;5009050;28;20892;-35
2024/01/15 01:41:08;;;;;;;23.70;21.70;;;;;;;1.84;100.00;98815.16;5008052;28;20449;-36
2024/01/15 01:43:36;;;;;;;24.27;22.57;;;;;;;1.88;100.00;98813.81;5009075;28;20932;-35
2024/01/15 01:46:05;;;;;;;24.40;22.00;;;;;;;1.85;100.00;98809.72;5008499;28;20492;-35
2024/01/15 01:48:33;;;;;;;25.30;22.80;;;;;;;1.87;100.00;98799.84;5008622;28;20507;-36
2024/01/15 01:51:03;;;;;;;24.00;22.00;;;;;;;1.89;100.00;98797.00;5008041;28;20603;-38
2024/01/15 01:53:34;;;;;;;25.73;23.77;;;;;;;1.89;100.00;98804.91;5008404;28;20468;-34
2024/01/15 01:56:04;;;;;;;24.70;23.00;;;;;;;1.89;100.00;98802.28;5052470;23;20562;-43
2024/01/15 01:58:34;;;;;;;27.53;24.83;;;;;;;1.85;100.00;98809.72;5031549;28;20507;-41
2024/01/15 02:01:02;;;;;;;25.77;23.30;;;;;;;1.82;100.00;98798.78;5022659;28;20432;-41
2024/01/15 02:03:31;;;;;;;25.87;23.90;;;;;;;1.85;100.00;98791.31;5025461;28;20534;-41
2024/01/15 02:06:00;;;;;;;25.97;22.33;;;;;;;1.86;100.00;98807.91;5021122;28;20812;-41
2024/01/15 02:08:28;;;;;;;24.00;22.17;;;;;;;1.88;100.00;98805.91;5031535;28;20907;-42
2024/01/15 02:10:56;;;;;;;23.87;21.87;;;;;;;1.91;100.00;98816.06;5030894;28;20428;-43
2024/01/15 02:13:25;;;;;;;24.37;22.70;;;;;;;1.94;100.00;98794.66;5031087;28;20517;-41
2024/01/15 02:15:53;;;;;;;24.53;22.63;;;;;;;1.86;100.00;98805.28;5031186;28;20451;-42
2024/01/15 02:18:21;;;;;;;25.73;23.43;;;;;;;1.78;100.00;98823.81;5031458;28;20486;-41
2024/01/15 02:20:48;;;;;;;29.93;26.20;;;;;;;1.67;100.00;98814.59;5030635;28;20460;-43
2024/01/15 02:23:18;;;;;;;27.33;25.30;;;;;;;1.58;100.00;98816.50;5031388;28;20515;-41
2024/01/15 02:25:47;;;;;;;27.10;24.53;;;;;;;1.51;100.00;98817.44;5031100;28;20464;-41
2024/01/15 02:28:16;;;;;;;27.47;24.90;;;;;;;1.48;100.00;98816.03;5023545;28;20455;-42
2024/01/15 02:30:45;;;;;;;25.67;23.40;;;;;;;1.44;100.00;98817.38;5030612;28;20920;-41
2024/01/15 02:33:13;;;;;;;26.63;24.00;;;;;;;1.47;100.00;98818.81;5031120;28;20478;-43
2024/01/15 02:35:41;;;;;;;28.40;23.07;;;;;;;1.47;100.00;98822.25;5031028;28;20530;-42
2024/01/15 02:38:09;;;;;;;24.37;22.33;;;;;;;1.53;100.00;98816.25;5030822;28;20903;-41
2024/01/15 02:40:39;;;;;;;26.10;23.50;;;;;;;1.55;100.00;98818.72;5031167;28;20479;-41
2024/01/15 02:43:07;;;;;;;29.57;23.03;;;;;;;1.59;100.00;98823.41;5030090;28;20470;-42
2024/01/15 02:45:35;;;;;;;25.20;23.13;;;;;;;1.62;100.00;98830.09;5030812;28;20945;-41
2024/01/15 02:48:03;;;;;;;23.10;21.50;;;;;;;1.55;100.00;98824.75;5030943;28;20935;-41
2024/01/15 02:50:30;;;;;;;23.00;21.47;;;;;;;1.51;100.00;98841.91;5030861;28;20974;-41
2024/01/15 02:52:58;;;;;;;23.17;21.73;;;;;;;1.49;100.00;98836.00;5030353;28;20991;-42
2024/01/15 02:55:26;;;;;;;25.30;23.47;;;;;;;1.46;100.00;98857.44;5030987;28;20880;-41
2024/01/15 02:57:55;;;;;;;23.07;21.63;;;;;;;1.38;100.00;98852.25;5030382;28;20466;-44
2024/01/15 03:00:22;;;;;;;24.17;22.60;;;;;;;1.34;100.00;98851.00;5030651;28;20476;-41
2024/01/15 03:02:51;;;;;;;24.07;22.17;;;;;;;1.30;100.00;98859.44;5030472;28;20468;-42
2024/01/15 03:05:20;;;;;;;26.27;24.10;;;;;;;1.29;100.00;98853.34;5023074;28;20440;-41
2024/01/15 03:07:47;;;;;;;24.93;22.50;;;;;;;1.28;100.00;98856.19;5031005;28;20851;-41
2024/01/15 03:10:15;;;;;;;23.47;22.00;;;;;;;1.29;100.00;98842.84;5030818;28;20471;-41
2024/01/15 03:12:43;;;;;;;23.87;22.07;;;;;;;1.30;100.00;98847.13;5030195;28;20452;-40
2024/01/15 03:15:12;;;;;;;23.70;22.10;;;;;;;1.36;100.00;98872.66;5030558;28;20436;-44
2024/01/15 03:17:42;;;;;;;24.10;22.47;;;;;;;1.41;100.00;98862.41;5030784;28;20484;-42
2024/01/15 03:20:11;;;;;;;24.63;22.73;;;;;;;1.45;100.00;98863.66;5030156;28;20538;-42
2024/01/15 03:22:39;;;;;;;26.10;23.70;;;;;;;1.47;100.00;98864.28;5029715;28;20851;-39
2024/01/15 03:25:07;;;;;;;25.10;23.47;;;;;;;1.49;100.00;98870.16;5032803;28;20517;-41
2024/01/15 03:27:35;;;;;;;26.00;24.20;;;;;;;1.52;100.00;98858.50;5034541;28;20451;-42
2024/01/15 03:30:03;;;;;;;23.63;22.20;;;;;;;1.52;100.00;98861.91;5034407;28;20939;-43
2024/01/15 03:32:33;;;;;;;28.73;22.87;;;;;;;1.55;100.00;98864.16;5033394;28;20456;-41
2024/01/15 03:35:01;;;;;;;23.53;21.90;;;;;;;1.56;100.00;98860.56;5034179;28;20811;-42
2024/01/15 03:37:29;;;;;;;23.37;21.80;;;;;;;1.59;100.00;98869.88;5034396;28;20550;-41
2024/01/15 03:39:56;;;;;;;26.33;23.77;;;;;;;1.63;100.00;98853.56;5033847;28;20574;-42
2024/01/15 03:42:24;;;;;;;25.70;23.30;;;;;;;1.63;100.00;98856.19;5033592;28;20456;-42
2024/01/15 03:44:52;;;;;;;23.93;22.30;;;;;;;1.65;100.00;98848.13;5034064;28;20440;-41
2024/01/15 03:47:20;;;;;;;26.57;24.30;;;;;;;1.65;100.00;98854.19;5026356;28;20455;-41
2024/01/15 03:49:49;;;;;;;29.60;26.90;;;;;;;1.64;100.00;98870.94;5034385;28;20463;-41
2024/01/15 03:52:17;;;;;;;23.80;22.00;;;;;;;1.65;100.00;98871.75;5032835;28;20456;-41
2024/01/15 03:54:44;;;;;;;25.67;23.60;;;;;;;1.60;100.00;98864.44;5033610;28;20436;-44
2024/01/15 03:57:12;;;;;;;24.37;22.20;;;;;;;1.63;100.00;98877.22;5033050;28;20462;-41
2024/01/15 03:59:41;;;;;;;24.93;23.07;;;;;;;1.65;100.00;98872.59;5033452;28;20479;-41
2024/01/15 04:02:09;;;;;;;24.10;22.50;;;;;;;1.64;100.00;98880.66;5033153;28;20524;-45
2024/01/15 04:04:36;;;;;;;25.80;23.73;;;;;;;1.66;100.00;98891.78;5033400;28;20522;-42
2024/01/15 04:07:06;;;;;;;25.97;23.60;;;;;;;1.64;100.00;98878.81;5033451;28;20462;-44
2024/01/15 04:09:33;;;;;;;25.67;23.67;;;;;;;1.66;100.00;98879.47;5033871;28;20444;-41
2024/01/15 04:12:01;;;;;;;26.50;24.30;;;;;;;1.67;100.00;98890.81;5032463;28;20464;-39
2024/01/15 04:14:29;;;;;;;24.80;22.60;;;;;;;1.65;100.00;98895.41;5033753;28;20432;-42
2024/01/15 04:16:57;;;;;;;26.03;24.13;;;;;;;1.64;100.00;98910.34;5033394;28;20460;-42
2024/01/15 04:19:24;;;;;;;24.73;23.23;;;;;;;1.65;100.00;98903.28;5033709;28;20443;-41
2024/01/15 04:21:52;;;;;;;26.10;24.33;;;;;;;1.66;100.00;98910.19;5032904;28;20831;-41
2024/01/15 04:24:21;;;;;;;25.63;24.07;;;;;;;1.66;100.00;98916.25;5033294;28;20436;-41
2024/01/15 04:26:49;;;;;;;23.10;21.80;;;;;;;1.67;100.00;98912.63;5033607;28;20459;-41
2024/01/15 04:29:17;;;;;;;23.90;22.20;;;;;;;1.70;100.00;98921.16;5033242;28;20452;-41
2024/01/15 04:31:44;;;;;;;24.93;23.00;;;;;;;1.74;100.00;98906.63;5032795;28;20464;-41
2024/01/15 04:34:12;;;;;;;24.30;22.13;;;;;;;1.72;100.00;98912.06;5032610;28;20531;-41
2024/01/15 04:36:41;;;;;;;24.73;22.50;;;;;;;1.77;100.00;98914.13;5032552;28;20824;-41
2024/01/15 04:39:09;;;;;;;24.63;23.03;;;;;;;1.77;100.00;98912.34;5032781;28;20901;-41
2024/01/15 04:41:38;;;;;;;26.10;24.17;;;;;;;1.80;100.00;98922.47;5033069;28;20468;-46
2024/01/15 04:44:06;;;;;;;27.27;24.20;;;;;;;1.79;100.00;98914.78;5032831;28;20436;-41
2024/01/15 04:46:34;;;;;;;26.27;23.77;;;;;;;1.79;100.00;98922.66;5032652;28;20464;-47
2024/01/15 04:49:02;;;;;;;24.43;22.90;;;;;;;1.76;100.00;98920.41;5033087;28;20440;-46
2024/01/15 04:51:30;;;;;;;24.63;22.60;;;;;;;1.76;100.00;98918.59;5033214;28;20480;-43
2024/01/15 04:53:58;;;;;;;24.80;23.00;;;;;;;1.77;100.00;98919.41;5034262;28;20780;-42
2024/01/15 04:56:25;;;;;;;24.67;22.57;;;;;;;1.76;100.00;98933.56;5034059;28;20455;-45
2024/01/15 04:58:54;;;;;;;26.30;22.90;;;;;;;1.76;100.00;98934.38;5034528;28;20444;-44
2024/01/15 05:01:22;;;;;;;25.10;23.13;;;;;;;1.74;100.00;98938.16;5033448;28;20460;-47
2024/01/15 05:03:50;;;;;;;24.10;22.30;;;;;;;1.68;100.00;98929.19;5033610;28;20432;-42
2024/01/15 05:06:18;;;;;;;24.70;23.00;;;;;;;1.66;100.00;98937.28;5033919;28;20843;-43
2024/01/15 05:08:46;;;;;;;22.70;21.50;;;;;;;1.65;100.00;98924.31;5033920;28;20444;-44
2024/01/15 05:11:13;;;;;;;22.90;21.47;;;;;;;1.62;100.00;98936.00;5032732;28;20460;-44
2024/01/15 05:13:41;;;;;;;23.03;20.83;;;;;;;1.61;100.00;98933.56;5033616;28;20432;-44
2024/01/15 05:16:10;;;;;;;21.47;20.03;;;;;;;1.58;100.00;98940.00;5033230;28;20460;-43
2024/01/15 05:18:38;;;;;;;25.50;23.43;;;;;;;1.56;100.00;98933.28;5033536;28;20955;-43
2024/01/15 05:21:06;;;;;;;23.33;22.07;;;;;;;1.55;100.00;98950.06;5032427;28;20456;-45
2024/01/15 05:23:33;;;;;;;24.83;23.30;;;;;;;1.51;100.00;98946.16;5033313;28;20519;-44
2024/01/15 05:26:01;;;;;;;25.10;23.10;;;;;;;1.46;100.00;98951.16;5032670;28;20487;-43
2024/01/15 05:28:29;;;;;;;25.77;23.73;;;;;;;1.45;100.00;98960.84;5033213;28;20834;-42
2024/01/15 05:30:57;;;;;;;24.93;23.10;;;;;;;1.42;100.00;98963.84;5032707;28;20927;-41
2024/01/15 05:33:26;;;;;;;25.53;23.77;;;;;;;1.39;100.00;98961.56;5033181;28;20432;-41
2024/01/15 05:35:54;;;;;;;24.93;23.13;;;;;;;1.36;100.00;98959.31;5033445;28;20452;-44
2024/01/15 05:38:22;;;;;;;26.27;24.17;;;;;;;1.33;100.00;98961.47;5033305;28;20935;-44
2024/01/15 05:40:50;;;;;;;25.23;23.40;;;;;;;1.31;100.00;98964.28;5033129;28;20480;-41
2024/01/15 05:43:17;;;;;;;24.20;22.73;;;;;;;1.30;100.00;98959.22;5033083;28;20439;-43
2024/01/15 05:45:45;;;;;;;25.03;23.23;;;;;;;1.25;100.00;98954.50;5032704;28;20439;-43
2024/01/15 05:48:13;;;;;;;26.73;25.03;;;;;;;1.25;100.00;98962.38;5032273;28;20523;-42
2024/01/15 05:50:42;;;;;;;27.27;25.60;;;;;;;1.24;100.00;98957.31;5032733;28;20471;-43
2024/01/15 05:53:10;;;;;;;25.80;24.10;;;;;;;1.19;100.00;98963.09;5032186;28;20452;-43
2024/01/15 05:55:38;;;;;;;25.53;23.40;;;;;;;1.15;100.00;98947.88;5031767;28;20460;-44
2024/01/15 05:58:06;;;;;;;25.93;24.10;;;;;;;1.14;100.00;98949.69;5032367;28;20438;-46
2024/01/15 06:00:35;;;;;;;25.40;23.87;;;;;;;1.10;100.00;98964.19;5032543;28;20575;-44
2024/01/15 06:03:03;;;;;;;24.50;22.70;;;;;;;1.05;100.00;98958.63;5031202;28;20460;-44
2024/01/15 06:05:31;;;;;;;25.77;24.20;;;;;;;1.03;100.00;98961.44;5032488;28;20456;-45
2024/01/15 06:08:00;;;;;;;25.60;24.03;;;;;;;1.01;100.00;98962.63;5032070;28;20436;-45
2024/01/15 06:10:27;;;;;;;24.60;23.00;;;;;;;0.95;100.00;98968.59;5032656;28;20428;-43
2024/01/15 06:12:55;;;;;;;25.70;23.83;;;;;;;0.93;100.00;98973.19;5032490;28;21095;-44
2024/01/15 06:15:23;;;;;;;24.90;23.40;;;;;;;0.93;100.00;98979.25;5032667;28;20447;-45
2024/01/15 06:17:50;;;;;;;26.00;24.20;;;;;;;0.96;100.00;98994.66;5032581;28;20448;-45
2024/01/15 06:20:18;;;;;;;26.83;22.97;;;;;;;0.90;100.00;98989.28;5032331;28;20528;-44
2024/01/15 06:22:46;;;;;;;24.70;23.33;;;;;;;0.90;100.00;98986.66;5031919;28;20467;-44
2024/01/15 06:25:15;;;;;;;25.00;23.40;;;;;;;0.84;100.00;98982.94;5032304;28;20519;-41
2024/01/15 06:27:42;;;;;;;24.80;23.50;;;;;;;0.81;100.00;98977.22;5032686;28;20452;-43
2024/01/15 06:30:11;;;;;;;25.13;23.30;;;;;;;0.77;100.00;98986.47;5032396;28;20432;-41
2024/01/15 06:32:40;;;;;;;24.47;23.23;;;;;;;0.72;100.00;98996.69;5031957;28;20831;-43
2024/01/15 06:35:10;;;;;;;25.70;23.93;;;;;;;0.70;100.00;98996.03;5032099;28;20436;-43
2024/01/15 06:37:38;;;;;;;24.70;23.20;;;;;;;0.65;100.00;99001.00;5031906;28;20448;-43
2024/01/15 06:40:08;;;;;;;26.00;23.70;;;;;;;0.62;100.00;98996.91;5031457;28;20440;-42
2024/01/15 06:42:37;;;;;;;25.00;23.60;;;;;;;0.57;100.00;98994.81;5030937;28;20464;-46
2024/01/15 06:45:06;;;;;;;25.70;23.60;;;;;;;0.53;100.00;98993.53;5031644;28;20440;-42
2024/01/15 06:47:33;;;;;;;26.27;24.30;;;;;;;0.51;100.00;99007.78;5032361;28;20527;-45
2024/01/15 06:50:01;;;;;;;25.30;23.23;;;;;;;0.49;100.00;99007.97;5032383;28;20436;-43
2024/01/15 06:52:29;;;;;;;24.77;22.90;;;;;;;0.44;100.00;99005.06;5031565;28;21013;-41
2024/01/15 06:54:56;;;;;;;26.80;25.33;;;;;;;0.43;100.00;99018.34;5032388;28;20471;-41
2024/01/15 06:57:24;;;;;;;25.70;24.17;;;;;;;0.41;100.00;99012.47;5031808;28;20472;-43
2024/01/15 06:59:53;;;;;;;24.97;23.37;;;;;;;0.40;100.00;99027.38;5036110;28;20756;-46
2024/01/15 07:02:21;;;;;;;24.43;22.40;;;;;;;0.41;100.00;99030.81;5035283;28;20460;-43
2024/01/15 07:04:49;;;;;;;24.40;22.37;;;;;;;0.43;100.00;99028.84;5035958;28;20446;-43
2024/01/15 07:07:16;;;;;;;23.93;22.33;;;;;;;0.43;100.00;99027.03;5036092;28;20464;-41
2024/01/15 07:09:44;;;;;;;23.27;21.77;;;;;;;0.47;100.00;99030.13;5036424;28;20523;-43
2024/01/15 07:12:12;;;;;;;23.53;21.90;;;;;;;0.46;100.00;99031.94;5035008;28;20460;-43
2024/01/15 07:14:40;;;;;;;23.43;21.57;;;;;;;0.42;100.00;99033.25;5035513;28;20482;-44
2024/01/15 07:17:09;;;;;;;23.37;22.00;;;;;;;0.38;100.00;99047.72;5035399;28;20460;-44
2024/01/15 07:19:36;;;;;;;24.33;22.73;;;;;;;0.36;100.00;99043.66;5035397;28;20497;-48
2024/01/15 07:22:04;;;;;;;23.47;22.03;;;;;;;0.36;100.00;99056.75;5034364;28;20541;-43
2024/01/15 07:24:34;;;;;;;25.17;23.20;;;;;;;0.31;100.00;99046.75;5026947;28;21177;-42
2024/01/15 07:27:02;;;;;;;25.23;23.63;;;;;;;0.29;100.00;99056.63;5035330;28;20474;-43
2024/01/15 07:29:29;;;;;;;24.83;23.03;;;;;;;0.28;100.00;99059.41;5036157;28;20432;-42
2024/01/15 07:31:57;;;;;;;23.90;22.53;;;;;;;0.27;100.00;99061.19;5034830;28;20526;-42
2024/01/15 07:34:26;;;;;;;24.37;22.50;;;;;;;0.27;100.00;99070.91;5035848;28;20450;-42
2024/01/15 07:36:54;;;;;;;24.00;22.90;;;;;;;0.30;100.00;99068.72;5035715;28;20456;-44
2024/01/15 07:39:22;;;;;;;24.10;22.60;;;;;;;0.32;100.00;99063.31;5035393;28;20490;-42
2024/01/15 07:41:50;;;;;;;23.87;22.10;;;;;;;0.33;100.00;99085.94;5034964;28;20820;-43
2024/01/15 07:44:18;;;;;;;24.10;22.50;;;;;;;0.35;100.00;99083.94;5035438;28;20434;-45
2024/01/15 07:46:46;;;;;;;22.50;21.60;;;;;;;0.36;100.00;99090.84;5035616;28;20456;-43
2024/01/15 07:49:14;;;;;;;22.97;21.97;;;;;;;0.38;100.00;99094.91;5035364;28;20428;-45
2024/01/15 07:51:43;;;;;;;23.67;22.13;;;;;;;0.40;100.00;99086.88;5034546;28;20495;-41
2024/01/15 07:54:12;;;;;;;22.00;21.03;;;;;;;0.42;100.00;99085.69;5034128;28;20954;-43
2024/01/15 07:56:54;;;;;;;22.50;21.30;;;;;;;0.43;100.00;99094.38;5035096;28;20894;-41
2024/01/15 07:59:22;;;;;;;24.17;22.77;;;;;;;0.45;100.00;99103.72;5035688;28;20424;-44
2024/01/15 08:01:50;;;;;;;24.23;23.10;;;;;;;0.47;100.00;99106.19;5036163;23;21110;-37
2024/01/15 08:04:18;;;;;;;23.37;21.93;;;;;;;0.43;100.00;99104.88;5010654;28;20449;-36
2024/01/15 08:06:47;;;;;;;23.50;21.40;;;;;;;0.43;100.00;99112.75;5010451;28;20452;-41
2024/01/15 08:09:15;;;;;;;24.10;22.90;;;;;;;0.42;100.00;99117.16;5009682;28;20871;-36
2024/01/15 08:11:44;;;;;;;22.43;21.50;;;;;;;0.43;100.00;99113.56;5026929;28;20460;-36
2024/01/15 08:14:13;;;;;;;23.23;22.13;;;;;;;0.42;100.00;99129.47;5029123;28;20494;-36
2024/01/15 08:16:41;;;;;;;21.67;20.67;;;;;;;0.45;100.00;99127.31;5030158;28;20486;-36
2024/01/15 08:19:09;;;;;;;22.83;21.53;;;;;;;0.45;100.00;99131.75;5030576;28;20819;-36
2024/01/15 08:21:36;;;;;;;23.00;21.67;;;;;;;0.44;100.00;99130.94;5028686;28;21006;-42
2024/01/15 08:24:06;;;;;;;22.50;21.07;;;;;;;0.43;100.00;99137.16;5030256;28;20788;-36
2024/01/15 08:26:34;;;;;;;21.50;20.70;;;;;;;0.41;100.00;99138.34;5030603;28;20436;-36
2024/01/15 08:29:02;;;;;;;21.97;20.80;;;;;;;0.39;100.00;99145.53;5030106;28;20429;-36
2024/01/15 08:31:29;;;;;;;21.60;20.70;;;;;;;0.40;100.00;99137.50;5030331;28;20478;-36
2024/01/15 08:33:59;;;;;;;21.10;20.30;;;;;;;0.42;100.00;99159.13;5031343;28;20559;-36
2024/01/15 08:36:27;;;;;;;22.00;20.73;;;;;;;0.39;100.00;99164.72;5028432;28;20436;-36
2024/01/15 08:38:55;;;;;;;21.27;20.27;;;;;;;0.41;100.00;99170.63;5029945;28;20469;-36
2024/01/15 08:41:24;;;;;;;22.97;21.00;;;;;;;0.45;100.00;99173.69;5028356;28;20460;-36
2024/01/15 08:43:52;;;;;;;21.73;20.50;;;;;;;0.43;100.00;99179.13;5030647;28;20813;-36
2024/01/15 08:46:20;;;;;;;22.27;21.33;;;;;;;0.42;100.00;99174.84;5029073;28;20442;-37
2024/01/15 08:48:48;;;;;;;21.60;20.70;;;;;;;0.41;100.00;99175.03;5029824;28;20435;-36
2024/01/15 08:51:16;;;;;;;20.33;19.43;;;;;;;0.40;100.00;99176.84;5028382;28;20466;-36
2024/01/15 08:53:44;;;;;;;19.90;18.93;;;;;;;0.34;100.00;99184.56;5032936;28;20463;-36
2024/01/15 08:56:11;;;;;;;20.97;19.97;;;;;;;0.37;100.00;99186.84;5028802;28;20530;-37
2024/01/15 08:58:40;;;;;;;20.10;19.30;;;;;;;0.35;100.00;99184.41;5023367;28;20530;-36
2024/01/15 09:01:08;;;;;;;21.73;20.30;;;;;;;0.43;100.00;99183.56;5027741;28;20459;-37
2024/01/15 09:03:36;;;;;;;20.67;19.57;;;;;;;0.40;100.00;99184.72;5028972;28;20476;-36
2024/01/15 09:06:05;;;;;;;18.83;17.93;;;;;;;0.45;100.00;99187.63;5030528;28;20538;-36
2024/01/15 09:08:32;;;;;;;19.87;18.20;;;;;;;0.46;100.00;99197.16;5032796;28;20440;-36
2024/01/15 09:11:02;;;;;;;18.30;17.33;;;;;;;0.43;100.00;99197.47;5026463;28;20460;-36
2024/01/15 09:13:30;;;;;;;18.07;17.17;;;;;;;0.46;100.00;99198.94;5030150;28;20486;-38
2024/01/15 09:16:00;;;;;;;18.70;17.53;;;;;;;0.53;100.00;99200.75;5027738;28;20471;-37
2024/01/15 09:18:29;;;;;;;17.40;16.80;;;;;;;0.55;100.00;99195.31;5028863;28;20432;-37
2024/01/15 09:20:57;;;;;;;19.17;18.27;;;;;;;0.55;100.00;99200.56;5027988;28;20519;-36
2024/01/15 09:23:25;;;;;;;21.00;19.57;;;;;;;0.60;100.00;99198.22;5030369;28;20487;-36
2024/01/15 09:25:55;;;;;;;20.50;19.30;;;;;;;0.59;100.00;99204.47;5028123;28;20969;-36
2024/01/15 09:28:23;;;;;;;20.83;19.83;;;;;;;0.60;100.00;99211.34;5028181;28;20433;-36
2024/01/15 09:30:51;;;;;;;19.70;18.47;;;;;;;0.55;100.00;99224.97;5028155;28;20488;-36
2024/01/15 09:33:20;;;;;;;22.30;20.10;;;;;;;0.52;100.00;99222.69;5028352;28;20455;-36
2024/01/15 09:35:47;;;;;;;20.53;19.60;;;;;;;0.53;100.00;99224.34;5031959;28;20978;-38
2024/01/15 09:38:15;;;;;;;19.90;19.07;;;;;;;0.54;100.00;99233.00;5032133;28;20451;-36
2024/01/15 09:40:46;;;;;;;20.30;19.20;;;;;;;0.55;100.00;99240.72;5027685;28;20456;-36
2024/01/15 09:43:15;;;;;;;19.47;18.60;;;;;;;0.58;100.00;99234.31;5004164;28;20957;-36
2024/01/15 09:45:43;;;;;;;18.57;17.87;;;;;;;0.59;100.00;99238.59;5032110;28;20514;-36
2024/01/15 09:48:12;;;;;;;18.47;17.67;;;;;;;0.57;100.00;99238.72;5031833;28;20968;-38
2024/01/15 09:50:41;;;;;;;18.10;17.40;;;;;;;0.52;100.00;99253.34;5031559;28;20513;-36
2024/01/15 09:53:10;;;;;;;18.57;17.67;;;;;;;0.56;100.00;99246.78;5031071;28;20629;-36
2024/01/15 09:55:38;;;;;;;18.20;17.40;;;;;;;0.53;100.00;99249.75;5031558;28;20852;-36
2024/01/15 09:58:06;;;;;;;18.53;17.73;;;;;;;0.51;100.00;99251.69;5031808;28;20929;-36
2024/01/15 10:00:36;;;;;;;18.43;17.73;;;;;;;0.52;100.00;99251.53;5031466;28;20472;-36
2024/01/15 10:03:06;;;;;;;18.77;18.07;;;;;;;0.60;100.00;99253.31;5027874;28;20853;-36
2024/01/15 10:05:34;;;;;;;19.77;18.90;;;;;;;0.64;100.00;99252.00;5031571;28;20527;-36
2024/01/15 10:08:05;;;;;;;18.80;17.87;;;;;;;0.60;100.00;99255.94;5031580;28;20431;-36
2024/01/15 10:10:32;;;;;;;17.80;17.10;;;;;;;0.64;100.00;99256.41;5031474;28;20452;-38
2024/01/15 10:13:01;;;;;;;17.33;16.63;;;;;;;0.56;100.00;99267.78;5027580;28;21037;-36
2024/01/15 10:15:28;;;;;;;17.47;16.50;;;;;;;0.56;100.00;99262.53;5028382;28;20440;-36
2024/01/15 10:17:56;;;;;;;17.57;16.87;;;;;;;0.55;100.00;99261.69;5030622;28;20428;-36
2024/01/15 10:20:24;;;;;;;17.60;16.90;;;;;;;0.53;100.00;99258.44;5027274;28;20819;-36
2024/01/15 10:22:52;;;;;;;18.13;17.43;;;;;;;0.54;100.00;99273.16;5030801;28;20844;-37
2024/01/15 10:25:25;;;;;;;18.20;17.40;;;;;;;0.55;100.00;99277.44;5028603;28;20436;-36
2024/01/15 10:28:01;;;;;;;18.57;17.67;;;;;;;0.50;100.00;99279.75;5030856;28;20978;-36
2024/01/15 10:30:29;;;;;;;18.27;17.33;;;;;;;0.55;100.00;99274.00;5025920;28;21010;-36
2024/01/15 10:33:01;;;;;;;17.90;17.10;;;;;;;0.47;100.00;99281.91;5028981;28;20452;-36
2024/01/15 10:35:30;;;;;;;17.23;16.60;;;;;;;0.49;100.00;99282.53;5027584;28;20439;-36
2024/01/15 10:37:59;;;;;;;17.83;17.23;;;;;;;0.47;100.00;99287.97;5028863;28;20527;-36
2024/01/15 10:40:29;;;;;;;18.13;17.43;;;;;;;0.47;100.00;99280.09;5026662;28;20483;-36
2024/01/15 10:42:57;;;;;;;18.13;17.47;;;;;;;0.53;100.00;99291.72;5026848;28;20475;-36
2024/01/15 10:45:25;;;;;;;18.23;17.40;;;;;;;0.55;100.00;99285.31;5027754;28;20440;-36
2024/01/15 10:47:58;;;;;;;18.10;17.40;;;;;;;0.53;100.00;99295.16;5027895;28;20849;-36
2024/01/15 10:50:26;;;;;;;19.77;18.87;;;;;;;0.59;100.00;99300.72;5030598;28;21012;-36
2024/01/15 10:52:54;;;;;;;18.73;17.93;;;;;;;0.56;100.00;99307.13;5026030;28;20505;-36
2024/01/15 10:55:24;;;;;;;18.90;17.80;;;;;;;0.56;100.00;99314.97;5027636;28;20428;-36
2024/01/15 10:57:56;;;;;;;19.33;18.53;;;;;;;0.57;100.00;99304.31;5027701;28;20436;-36
2024/01/15 11:00:25;;;;;;;18.27;17.67;;;;;;;0.57;100.00;99302.69;5027355;28;20582;-36
2024/01/15 11:02:55;;;;;;;19.30;18.50;;;;;;;0.66;100.00;99312.19;5029024;28;20464;-36
2024/01/15 11:05:23;;;;;;;18.77;17.87;;;;;;;0.69;100.00;99317.09;5028013;28;20511;-38
2024/01/15 11:07:51;;;;;;;18.73;18.03;;;;;;;0.71;100.00;99318.56;5028107;28;20432;-36
2024/01/15 11:10:41;;;;;;;19.87;18.97;;;;;;;0.74;100.00;99322.66;5027955;28;20452;-36
2024/01/15 11:13:11;;;;;;;18.10;17.30;;;;;;;0.77;100.00;99330.19;5022059;28;20518;-36
2024/01/15 11:15:56;;;;;;;19.07;18.47;;;;;;;0.80;100.00;99327.22;5031145;28;20510;-36
2024/01/15 11:18:24;;;;;;;19.47;18.40;;;;;;;0.87;100.00;99326.38;5025853;28;20439;-36
2024/01/15 11:21:24;;;;;;;19.70;18.73;;;;;;;0.89;100.00;99323.59;5029670;28;20458;-36
2024/01/15 11:23:56;;;;;;;20.77;19.77;;;;;;;0.95;100.00;99317.66;5019796;28;20468;-37